sensor_id;sensor_type;location;lat;lon;timestamp;P1;durP1;ratioP1;P2;durP2;ratioP2
20794;SDS011;28087;-33.874;151.240;2023-06-05T00:02:26;9.05;;;1.70;;
20794;SDS011;28087;-33.874;151.240;2023-06-05T00:05:01;7.55;;;1.42;;
20794;SDS011;28087;-33.874;151.240;2023-06-05T00:07:39;8.60;;;1.48;;
20794;SDS011;28087;-33.874;151.240;2023-06-05T00:10:14;7.22;;;1.40;;
20794;SDS011;28087;-33.874;151.240;2023-06-05T00:12:50;7.80;;;1.40;;
20794;SDS011;28087;-33.874;151.240;2023-06-05T00:15:25;7.55;;;1.50;;
20794;SDS011;28087;-33.874;151.240;2023-06-05T00:18:02;6.03;;;1.40;;
20794;SDS011;28087;-33.874;151.240;2023-06-05T00:20:37;6.68;;;1.60;;
20794;SDS011;28087;-33.874;151.240;2023-06-05T00:23:11;17.00;;;2.10;;
20794;SDS011;28087;-33.874;151.240;2023-06-05T00:25:46;8.18;;;1.42;;
20794;SDS011;28087;-33.874;151.240;2023-06-05T00:28:24;6.28;;;1.30;;
20794;SDS011;28087;-33.874;151.240;2023-06-05T00:30:59;7.18;;;1.45;;
20794;SDS011;28087;-33.874;151.240;2023-06-05T00:33:34;11.32;;;1.50;;
20794;SDS011;28087;-33.874;151.240;2023-06-05T00:36:10;7.90;;;1.20;;
20794;SDS011;28087;-33.874;151.240;2023-06-05T00:38:45;6.63;;;1.23;;
20794;SDS011;28087;-33.874;151.240;2023-06-05T00:41:23;8.13;;;1.40;;
20794;SDS011;28087;-33.874;151.240;2023-06-05T00:44:01;6.72;;;1.20;;
20794;SDS011;28087;-33.874;151.240;2023-06-05T00:46:38;4.45;;;1.15;;
20794;SDS011;28087;-33.874;151.240;2023-06-05T00:49:14;7.57;;;1.23;;
20794;SDS011;28087;-33.874;151.240;2023-06-05T00:51:50;8.45;;;1.63;;
20794;SDS011;28087;-33.874;151.240;2023-06-05T00:54:25;10.73;;;1.40;;
20794;SDS011;28087;-33.874;151.240;2023-06-05T00:56:59;5.32;;;1.10;;
20794;SDS011;28087;-33.874;151.240;2023-06-05T00:59:37;6.35;;;1.48;;
20794;SDS011;28087;-33.874;151.240;2023-06-05T01:02:15;4.75;;;1.10;;
20794;SDS011;28087;-33.874;151.240;2023-06-05T01:04:50;8.23;;;1.30;;
20794;SDS011;28087;-33.874;151.240;2023-06-05T01:07:27;7.53;;;1.40;;
20794;SDS011;28087;-33.874;151.240;2023-06-05T01:10:05;7.40;;;1.23;;
20794;SDS011;28087;-33.874;151.240;2023-06-05T01:12:41;6.07;;;1.10;;
20794;SDS011;28087;-33.874;151.240;2023-06-05T01:15:19;5.47;;;1.00;;
20794;SDS011;28087;-33.874;151.240;2023-06-05T01:18:01;5.75;;;1.00;;
20794;SDS011;28087;-33.874;151.240;2023-06-05T01:20:38;7.80;;;1.23;;
20794;SDS011;28087;-33.874;151.240;2023-06-05T01:23:14;7.00;;;1.17;;
20794;SDS011;28087;-33.874;151.240;2023-06-05T01:25:49;6.95;;;1.42;;
20794;SDS011;28087;-33.874;151.240;2023-06-05T01:28:24;5.00;;;1.10;;
20794;SDS011;28087;-33.874;151.240;2023-06-05T01:31:01;11.15;;;1.42;;
20794;SDS011;28087;-33.874;151.240;2023-06-05T01:33:38;6.93;;;1.25;;
20794;SDS011;28087;-33.874;151.240;2023-06-05T01:36:15;7.22;;;1.48;;
20794;SDS011;28087;-33.874;151.240;2023-06-05T01:38:52;7.68;;;1.50;;
20794;SDS011;28087;-33.874;151.240;2023-06-05T01:41:28;8.93;;;1.45;;
20794;SDS011;28087;-33.874;151.240;2023-06-05T01:44:03;11.23;;;1.75;;
20794;SDS011;28087;-33.874;151.240;2023-06-05T01:46:39;10.00;;;1.60;;
20794;SDS011;28087;-33.874;151.240;2023-06-05T01:49:14;12.40;;;1.90;;
20794;SDS011;28087;-33.874;151.240;2023-06-05T01:51:50;9.27;;;1.90;;
20794;SDS011;28087;-33.874;151.240;2023-06-05T01:54:27;10.55;;;1.55;;
20794;SDS011;28087;-33.874;151.240;2023-06-05T01:57:03;10.77;;;1.70;;
20794;SDS011;28087;-33.874;151.240;2023-06-05T01:59:38;7.03;;;1.40;;
20794;SDS011;28087;-33.874;151.240;2023-06-05T02:02:14;9.15;;;1.70;;
20794;SDS011;28087;-33.874;151.240;2023-06-05T02:04:49;7.53;;;1.90;;
20794;SDS011;28087;-33.874;151.240;2023-06-05T02:07:24;7.85;;;1.58;;
20794;SDS011;28087;-33.874;151.240;2023-06-05T02:10:01;6.85;;;1.40;;
20794;SDS011;28087;-33.874;151.240;2023-06-05T02:12:37;6.93;;;1.55;;
20794;SDS011;28087;-33.874;151.240;2023-06-05T02:15:12;13.93;;;2.00;;
20794;SDS011;28087;-33.874;151.240;2023-06-05T02:17:47;6.32;;;1.50;;
20794;SDS011;28087;-33.874;151.240;2023-06-05T02:20:24;9.45;;;2.13;;
20794;SDS011;28087;-33.874;151.240;2023-06-05T02:22:59;10.85;;;1.83;;
20794;SDS011;28087;-33.874;151.240;2023-06-05T02:25:35;8.57;;;1.90;;
20794;SDS011;28087;-33.874;151.240;2023-06-05T02:28:10;7.53;;;1.52;;
20794;SDS011;28087;-33.874;151.240;2023-06-05T02:30:44;8.60;;;1.50;;
20794;SDS011;28087;-33.874;151.240;2023-06-05T02:33:20;7.40;;;1.60;;
20794;SDS011;28087;-33.874;151.240;2023-06-05T02:35:55;7.03;;;1.30;;
20794;SDS011;28087;-33.874;151.240;2023-06-05T02:38:30;9.43;;;1.85;;
20794;SDS011;28087;-33.874;151.240;2023-06-05T02:41:06;10.38;;;1.67;;
20794;SDS011;28087;-33.874;151.240;2023-06-05T02:43:42;9.93;;;1.60;;
20794;SDS011;28087;-33.874;151.240;2023-06-05T02:46:16;12.40;;;1.83;;
20794;SDS011;28087;-33.874;151.240;2023-06-05T02:48:52;6.90;;;1.50;;
20794;SDS011;28087;-33.874;151.240;2023-06-05T02:51:27;8.00;;;1.40;;
20794;SDS011;28087;-33.874;151.240;2023-06-05T02:54:03;9.55;;;1.50;;
20794;SDS011;28087;-33.874;151.240;2023-06-05T02:56:43;7.72;;;1.52;;
20794;SDS011;28087;-33.874;151.240;2023-06-05T02:59:18;10.15;;;1.40;;
20794;SDS011;28087;-33.874;151.240;2023-06-05T03:01:54;8.15;;;1.52;;
20794;SDS011;28087;-33.874;151.240;2023-06-05T03:04:30;7.72;;;1.60;;
20794;SDS011;28087;-33.874;151.240;2023-06-05T03:07:05;10.60;;;1.85;;
20794;SDS011;28087;-33.874;151.240;2023-06-05T03:09:42;6.22;;;1.50;;
20794;SDS011;28087;-33.874;151.240;2023-06-05T03:12:19;9.27;;;1.70;;
20794;SDS011;28087;-33.874;151.240;2023-06-05T03:14:55;10.05;;;1.60;;
20794;SDS011;28087;-33.874;151.240;2023-06-05T03:17:31;9.70;;;1.58;;
20794;SDS011;28087;-33.874;151.240;2023-06-05T03:20:07;8.57;;;1.83;;
20794;SDS011;28087;-33.874;151.240;2023-06-05T03:22:42;9.43;;;1.58;;
20794;SDS011;28087;-33.874;151.240;2023-06-05T03:25:18;5.30;;;1.20;;
20794;SDS011;28087;-33.874;151.240;2023-06-05T03:27:57;9.52;;;1.73;;
20794;SDS011;28087;-33.874;151.240;2023-06-05T03:30:32;12.93;;;1.58;;
20794;SDS011;28087;-33.874;151.240;2023-06-05T03:33:09;10.65;;;1.90;;
20794;SDS011;28087;-33.874;151.240;2023-06-05T03:35:45;7.57;;;1.48;;
20794;SDS011;28087;-33.874;151.240;2023-06-05T03:38:20;10.48;;;1.70;;
20794;SDS011;28087;-33.874;151.240;2023-06-05T03:40:55;5.32;;;1.40;;
20794;SDS011;28087;-33.874;151.240;2023-06-05T03:43:32;9.18;;;1.90;;
20794;SDS011;28087;-33.874;151.240;2023-06-05T03:46:08;8.00;;;1.70;;
20794;SDS011;28087;-33.874;151.240;2023-06-05T03:48:51;8.25;;;1.45;;
20794;SDS011;28087;-33.874;151.240;2023-06-05T03:51:29;10.73;;;1.65;;
20794;SDS011;28087;-33.874;151.240;2023-06-05T03:54:04;7.68;;;1.50;;
20794;SDS011;28087;-33.874;151.240;2023-06-05T03:56:40;9.10;;;1.95;;
20794;SDS011;28087;-33.874;151.240;2023-06-05T03:59:22;7.47;;;1.75;;
20794;SDS011;28087;-33.874;151.240;2023-06-05T04:02:01;11.65;;;1.70;;
20794;SDS011;28087;-33.874;151.240;2023-06-05T04:04:38;11.88;;;1.80;;
20794;SDS011;28087;-33.874;151.240;2023-06-05T04:07:14;5.43;;;1.40;;
20794;SDS011;28087;-33.874;151.240;2023-06-05T04:09:48;6.40;;;1.45;;
20794;SDS011;28087;-33.874;151.240;2023-06-05T04:12:23;6.40;;;1.10;;
20794;SDS011;28087;-33.874;151.240;2023-06-05T04:14:59;5.95;;;1.25;;
20794;SDS011;28087;-33.874;151.240;2023-06-05T04:17:35;7.82;;;1.23;;
20794;SDS011;28087;-33.874;151.240;2023-06-05T04:20:11;7.15;;;1.20;;
20794;SDS011;28087;-33.874;151.240;2023-06-05T04:22:46;7.53;;;1.40;;
20794;SDS011;28087;-33.874;151.240;2023-06-05T04:25:21;8.95;;;1.52;;
20794;SDS011;28087;-33.874;151.240;2023-06-05T04:28:00;5.38;;;1.20;;
20794;SDS011;28087;-33.874;151.240;2023-06-05T04:30:37;4.97;;;1.17;;
20794;SDS011;28087;-33.874;151.240;2023-06-05T04:33:12;7.22;;;1.10;;
20794;SDS011;28087;-33.874;151.240;2023-06-05T04:35:47;7.70;;;1.15;;
20794;SDS011;28087;-33.874;151.240;2023-06-05T04:38:26;5.40;;;1.00;;
20794;SDS011;28087;-33.874;151.240;2023-06-05T04:41:00;8.15;;;1.20;;
20794;SDS011;28087;-33.874;151.240;2023-06-05T04:43:36;5.85;;;1.00;;
20794;SDS011;28087;-33.874;151.240;2023-06-05T04:46:13;3.53;;;0.82;;
20794;SDS011;28087;-33.874;151.240;2023-06-05T04:48:49;4.25;;;0.98;;
20794;SDS011;28087;-33.874;151.240;2023-06-05T04:51:26;3.72;;;0.75;;
20794;SDS011;28087;-33.874;151.240;2023-06-05T04:54:00;5.65;;;0.90;;
20794;SDS011;28087;-33.874;151.240;2023-06-05T04:56:36;5.07;;;0.80;;
20794;SDS011;28087;-33.874;151.240;2023-06-05T04:59:12;4.50;;;0.98;;
20794;SDS011;28087;-33.874;151.240;2023-06-05T05:01:49;5.25;;;1.00;;
20794;SDS011;28087;-33.874;151.240;2023-06-05T05:04:25;4.20;;;0.80;;
20794;SDS011;28087;-33.874;151.240;2023-06-05T05:07:00;3.67;;;0.68;;
20794;SDS011;28087;-33.874;151.240;2023-06-05T05:09:37;2.70;;;0.65;;
20794;SDS011;28087;-33.874;151.240;2023-06-05T05:12:11;5.13;;;0.70;;
20794;SDS011;28087;-33.874;151.240;2023-06-05T05:14:48;4.93;;;0.70;;
20794;SDS011;28087;-33.874;151.240;2023-06-05T05:17:24;4.03;;;0.73;;
20794;SDS011;28087;-33.874;151.240;2023-06-05T05:20:01;4.07;;;0.80;;
20794;SDS011;28087;-33.874;151.240;2023-06-05T05:22:38;5.47;;;0.80;;
20794;SDS011;28087;-33.874;151.240;2023-06-05T05:25:13;3.72;;;0.80;;
20794;SDS011;28087;-33.874;151.240;2023-06-05T05:27:48;2.85;;;0.68;;
20794;SDS011;28087;-33.874;151.240;2023-06-05T05:30:24;3.63;;;0.70;;
20794;SDS011;28087;-33.874;151.240;2023-06-05T05:33:01;4.95;;;0.93;;
20794;SDS011;28087;-33.874;151.240;2023-06-05T05:35:36;3.67;;;0.80;;
20794;SDS011;28087;-33.874;151.240;2023-06-05T05:38:12;5.85;;;0.70;;
20794;SDS011;28087;-33.874;151.240;2023-06-05T05:40:48;4.95;;;0.73;;
20794;SDS011;28087;-33.874;151.240;2023-06-05T05:43:22;2.90;;;0.70;;
20794;SDS011;28087;-33.874;151.240;2023-06-05T05:45:58;3.00;;;0.70;;
20794;SDS011;28087;-33.874;151.240;2023-06-05T05:48:37;3.15;;;0.73;;
20794;SDS011;28087;-33.874;151.240;2023-06-05T05:51:13;2.85;;;0.77;;
20794;SDS011;28087;-33.874;151.240;2023-06-05T05:53:47;2.63;;;0.70;;
20794;SDS011;28087;-33.874;151.240;2023-06-05T05:56:22;6.60;;;0.80;;
20794;SDS011;28087;-33.874;151.240;2023-06-05T05:58:56;3.15;;;0.80;;
20794;SDS011;28087;-33.874;151.240;2023-06-05T06:01:32;4.65;;;0.85;;
20794;SDS011;28087;-33.874;151.240;2023-06-05T06:04:08;2.13;;;0.60;;
20794;SDS011;28087;-33.874;151.240;2023-06-05T06:06:43;4.93;;;0.80;;
20794;SDS011;28087;-33.874;151.240;2023-06-05T06:09:22;2.97;;;0.90;;
20794;SDS011;28087;-33.874;151.240;2023-06-05T06:11:58;6.18;;;0.90;;
20794;SDS011;28087;-33.874;151.240;2023-06-05T06:14:36;2.75;;;0.60;;
20794;SDS011;28087;-33.874;151.240;2023-06-05T06:17:11;4.70;;;1.05;;
20794;SDS011;28087;-33.874;151.240;2023-06-05T06:19:48;3.83;;;1.00;;
20794;SDS011;28087;-33.874;151.240;2023-06-05T06:22:23;4.25;;;0.90;;
20794;SDS011;28087;-33.874;151.240;2023-06-05T06:24:58;6.40;;;1.00;;
20794;SDS011;28087;-33.874;151.240;2023-06-05T06:27:33;7.03;;;1.48;;
20794;SDS011;28087;-33.874;151.240;2023-06-05T06:30:08;5.15;;;1.00;;
20794;SDS011;28087;-33.874;151.240;2023-06-05T06:32:44;3.55;;;0.70;;
20794;SDS011;28087;-33.874;151.240;2023-06-05T06:35:20;4.88;;;0.80;;
20794;SDS011;28087;-33.874;151.240;2023-06-05T06:37:54;4.15;;;0.90;;
20794;SDS011;28087;-33.874;151.240;2023-06-05T06:40:29;6.32;;;1.00;;
20794;SDS011;28087;-33.874;151.240;2023-06-05T06:43:04;3.92;;;0.80;;
20794;SDS011;28087;-33.874;151.240;2023-06-05T06:45:48;3.60;;;0.80;;
20794;SDS011;28087;-33.874;151.240;2023-06-05T06:48:22;8.25;;;1.17;;
20794;SDS011;28087;-33.874;151.240;2023-06-05T06:50:59;8.13;;;1.35;;
20794;SDS011;28087;-33.874;151.240;2023-06-05T06:53:35;6.00;;;1.20;;
20794;SDS011;28087;-33.874;151.240;2023-06-05T06:56:11;6.97;;;1.30;;
20794;SDS011;28087;-33.874;151.240;2023-06-05T06:58:46;5.53;;;1.00;;
20794;SDS011;28087;-33.874;151.240;2023-06-05T07:01:21;8.55;;;1.25;;
20794;SDS011;28087;-33.874;151.240;2023-06-05T07:03:57;3.92;;;0.95;;
20794;SDS011;28087;-33.874;151.240;2023-06-05T07:06:34;6.30;;;1.10;;
20794;SDS011;28087;-33.874;151.240;2023-06-05T07:09:08;5.65;;;1.23;;
20794;SDS011;28087;-33.874;151.240;2023-06-05T07:11:43;4.25;;;1.00;;
20794;SDS011;28087;-33.874;151.240;2023-06-05T07:14:19;11.50;;;1.13;;
20794;SDS011;28087;-33.874;151.240;2023-06-05T07:16:53;8.13;;;1.33;;
20794;SDS011;28087;-33.874;151.240;2023-06-05T07:19:32;6.85;;;1.20;;
20794;SDS011;28087;-33.874;151.240;2023-06-05T07:22:09;6.47;;;1.10;;
20794;SDS011;28087;-33.874;151.240;2023-06-05T07:24:45;9.13;;;1.50;;
20794;SDS011;28087;-33.874;151.240;2023-06-05T07:27:19;4.72;;;1.00;;
20794;SDS011;28087;-33.874;151.240;2023-06-05T07:29:54;4.60;;;1.00;;
20794;SDS011;28087;-33.874;151.240;2023-06-05T07:32:30;6.07;;;1.05;;
20794;SDS011;28087;-33.874;151.240;2023-06-05T07:35:06;4.65;;;0.90;;
20794;SDS011;28087;-33.874;151.240;2023-06-05T07:37:42;4.78;;;0.98;;
20794;SDS011;28087;-33.874;151.240;2023-06-05T07:40:17;6.43;;;1.00;;
20794;SDS011;28087;-33.874;151.240;2023-06-05T07:42:52;4.00;;;0.90;;
20794;SDS011;28087;-33.874;151.240;2023-06-05T07:45:28;4.10;;;1.10;;
20794;SDS011;28087;-33.874;151.240;2023-06-05T07:48:03;4.90;;;1.10;;
20794;SDS011;28087;-33.874;151.240;2023-06-05T07:50:37;4.45;;;1.00;;
20794;SDS011;28087;-33.874;151.240;2023-06-05T07:53:14;6.90;;;0.95;;
20794;SDS011;28087;-33.874;151.240;2023-06-05T07:55:49;3.85;;;0.60;;
20794;SDS011;28087;-33.874;151.240;2023-06-05T07:58:24;4.38;;;0.90;;
20794;SDS011;28087;-33.874;151.240;2023-06-05T08:01:00;2.85;;;0.77;;
20794;SDS011;28087;-33.874;151.240;2023-06-05T08:03:38;4.50;;;0.88;;
20794;SDS011;28087;-33.874;151.240;2023-06-05T08:06:15;6.72;;;0.90;;
20794;SDS011;28087;-33.874;151.240;2023-06-05T08:08:51;3.65;;;0.80;;
20794;SDS011;28087;-33.874;151.240;2023-06-05T08:11:26;4.32;;;1.10;;
20794;SDS011;28087;-33.874;151.240;2023-06-05T08:14:00;5.47;;;0.90;;
20794;SDS011;28087;-33.874;151.240;2023-06-05T08:16:37;3.15;;;0.82;;
20794;SDS011;28087;-33.874;151.240;2023-06-05T08:19:11;2.55;;;0.60;;
20794;SDS011;28087;-33.874;151.240;2023-06-05T08:21:46;2.10;;;0.60;;
20794;SDS011;28087;-33.874;151.240;2023-06-05T08:24:22;4.32;;;0.88;;
20794;SDS011;28087;-33.874;151.240;2023-06-05T08:26:59;2.03;;;0.63;;
20794;SDS011;28087;-33.874;151.240;2023-06-05T08:29:34;2.95;;;0.90;;
20794;SDS011;28087;-33.874;151.240;2023-06-05T08:32:09;4.90;;;1.00;;
20794;SDS011;28087;-33.874;151.240;2023-06-05T08:34:43;2.83;;;0.70;;
20794;SDS011;28087;-33.874;151.240;2023-06-05T08:37:19;1.75;;;0.70;;
20794;SDS011;28087;-33.874;151.240;2023-06-05T08:39:55;2.75;;;1.33;;
20794;SDS011;28087;-33.874;151.240;2023-06-05T08:42:32;5.82;;;1.20;;
20794;SDS011;28087;-33.874;151.240;2023-06-05T08:45:07;2.85;;;1.02;;
20794;SDS011;28087;-33.874;151.240;2023-06-05T08:47:42;2.97;;;0.80;;
20794;SDS011;28087;-33.874;151.240;2023-06-05T08:50:18;1.50;;;0.63;;
20794;SDS011;28087;-33.874;151.240;2023-06-05T08:52:53;3.80;;;0.93;;
20794;SDS011;28087;-33.874;151.240;2023-06-05T08:55:31;2.50;;;0.80;;
20794;SDS011;28087;-33.874;151.240;2023-06-05T08:58:06;3.67;;;1.13;;
20794;SDS011;28087;-33.874;151.240;2023-06-05T09:00:41;3.40;;;0.90;;
20794;SDS011;28087;-33.874;151.240;2023-06-05T09:03:16;4.55;;;1.30;;
20794;SDS011;28087;-33.874;151.240;2023-06-05T09:05:52;3.92;;;1.42;;
20794;SDS011;28087;-33.874;151.240;2023-06-05T09:08:32;2.95;;;1.17;;
20794;SDS011;28087;-33.874;151.240;2023-06-05T09:11:22;4.97;;;0.90;;
20794;SDS011;28087;-33.874;151.240;2023-06-05T09:13:58;3.70;;;1.00;;
20794;SDS011;28087;-33.874;151.240;2023-06-05T09:16:33;5.55;;;1.52;;
20794;SDS011;28087;-33.874;151.240;2023-06-05T09:19:08;4.15;;;0.82;;
20794;SDS011;28087;-33.874;151.240;2023-06-05T09:21:50;2.67;;;0.80;;
20794;SDS011;28087;-33.874;151.240;2023-06-05T09:24:25;3.83;;;1.15;;
20794;SDS011;28087;-33.874;151.240;2023-06-05T09:27:03;2.35;;;0.80;;
20794;SDS011;28087;-33.874;151.240;2023-06-05T09:29:39;4.30;;;1.00;;
20794;SDS011;28087;-33.874;151.240;2023-06-05T09:32:16;3.33;;;1.10;;
20794;SDS011;28087;-33.874;151.240;2023-06-05T09:34:54;2.90;;;1.00;;
20794;SDS011;28087;-33.874;151.240;2023-06-05T09:37:34;6.25;;;1.10;;
20794;SDS011;28087;-33.874;151.240;2023-06-05T09:40:09;3.92;;;1.20;;
20794;SDS011;28087;-33.874;151.240;2023-06-05T09:42:47;3.17;;;1.10;;
20794;SDS011;28087;-33.874;151.240;2023-06-05T09:45:24;2.55;;;1.10;;
20794;SDS011;28087;-33.874;151.240;2023-06-05T09:48:15;3.20;;;1.00;;
20794;SDS011;28087;-33.874;151.240;2023-06-05T09:50:50;2.60;;;0.88;;
20794;SDS011;28087;-33.874;151.240;2023-06-05T09:53:24;3.72;;;1.13;;
20794;SDS011;28087;-33.874;151.240;2023-06-05T09:56:00;5.75;;;1.35;;
20794;SDS011;28087;-33.874;151.240;2023-06-05T09:58:38;2.92;;;1.00;;
20794;SDS011;28087;-33.874;151.240;2023-06-05T10:01:15;2.80;;;1.35;;
20794;SDS011;28087;-33.874;151.240;2023-06-05T10:03:56;4.20;;;1.48;;
20794;SDS011;28087;-33.874;151.240;2023-06-05T10:06:31;3.75;;;1.20;;
20794;SDS011;28087;-33.874;151.240;2023-06-05T10:09:07;3.53;;;1.27;;
20794;SDS011;28087;-33.874;151.240;2023-06-05T10:11:42;4.43;;;1.10;;
20794;SDS011;28087;-33.874;151.240;2023-06-05T10:14:20;3.20;;;1.08;;
20794;SDS011;28087;-33.874;151.240;2023-06-05T10:16:55;4.20;;;1.33;;
20794;SDS011;28087;-33.874;151.240;2023-06-05T10:19:30;2.40;;;1.00;;
20794;SDS011;28087;-33.874;151.240;2023-06-05T10:22:05;3.90;;;0.90;;
20794;SDS011;28087;-33.874;151.240;2023-06-05T10:24:41;3.03;;;0.95;;
20794;SDS011;28087;-33.874;151.240;2023-06-05T10:27:21;2.53;;;0.90;;
20794;SDS011;28087;-33.874;151.240;2023-06-05T10:30:13;2.90;;;0.90;;
20794;SDS011;28087;-33.874;151.240;2023-06-05T10:32:55;3.47;;;0.88;;
20794;SDS011;28087;-33.874;151.240;2023-06-05T10:35:36;3.20;;;0.90;;
20794;SDS011;28087;-33.874;151.240;2023-06-05T10:38:16;3.17;;;0.80;;
20794;SDS011;28087;-33.874;151.240;2023-06-05T10:40:53;4.97;;;1.65;;
20794;SDS011;28087;-33.874;151.240;2023-06-05T10:43:28;5.38;;;1.50;;
20794;SDS011;28087;-33.874;151.240;2023-06-05T10:49:07;4.68;;;1.30;;
20794;SDS011;28087;-33.874;151.240;2023-06-05T10:51:43;3.00;;;1.10;;
20794;SDS011;28087;-33.874;151.240;2023-06-05T10:57:09;4.90;;;1.30;;
20794;SDS011;28087;-33.874;151.240;2023-06-05T10:59:44;5.28;;;1.35;;
20794;SDS011;28087;-33.874;151.240;2023-06-05T11:02:24;4.28;;;1.20;;
20794;SDS011;28087;-33.874;151.240;2023-06-05T11:05:09;2.75;;;1.05;;
20794;SDS011;28087;-33.874;151.240;2023-06-05T11:07:44;3.90;;;1.10;;
20794;SDS011;28087;-33.874;151.240;2023-06-05T11:10:19;2.67;;;1.02;;
20794;SDS011;28087;-33.874;151.240;2023-06-05T11:12:59;2.92;;;1.15;;
20794;SDS011;28087;-33.874;151.240;2023-06-05T11:15:40;4.43;;;1.27;;
20794;SDS011;28087;-33.874;151.240;2023-06-05T11:18:34;4.57;;;1.40;;
20794;SDS011;28087;-33.874;151.240;2023-06-05T11:21:14;3.25;;;1.10;;
20794;SDS011;28087;-33.874;151.240;2023-06-05T11:26:40;5.00;;;1.05;;
20794;SDS011;28087;-33.874;151.240;2023-06-05T11:29:16;4.90;;;1.15;;
20794;SDS011;28087;-33.874;151.240;2023-06-05T11:31:51;3.63;;;1.00;;
20794;SDS011;28087;-33.874;151.240;2023-06-05T11:34:28;4.13;;;1.20;;
20794;SDS011;28087;-33.874;151.240;2023-06-05T11:37:15;4.40;;;0.98;;
20794;SDS011;28087;-33.874;151.240;2023-06-05T11:39:50;3.97;;;0.88;;
20794;SDS011;28087;-33.874;151.240;2023-06-05T11:42:25;3.35;;;0.82;;
20794;SDS011;28087;-33.874;151.240;2023-06-05T11:45:00;2.90;;;0.82;;
20794;SDS011;28087;-33.874;151.240;2023-06-05T11:47:35;7.25;;;1.00;;
20794;SDS011;28087;-33.874;151.240;2023-06-05T11:50:12;2.88;;;0.65;;
20794;SDS011;28087;-33.874;151.240;2023-06-05T11:52:47;4.45;;;0.80;;
20794;SDS011;28087;-33.874;151.240;2023-06-05T11:55:22;4.03;;;0.80;;
20794;SDS011;28087;-33.874;151.240;2023-06-05T11:58:03;2.33;;;0.70;;
20794;SDS011;28087;-33.874;151.240;2023-06-05T12:00:39;4.18;;;0.80;;
20794;SDS011;28087;-33.874;151.240;2023-06-05T12:03:17;2.38;;;0.70;;
20794;SDS011;28087;-33.874;151.240;2023-06-05T12:05:54;4.60;;;0.80;;
20794;SDS011;28087;-33.874;151.240;2023-06-05T12:08:29;3.47;;;0.80;;
20794;SDS011;28087;-33.874;151.240;2023-06-05T12:11:19;2.47;;;0.70;;
20794;SDS011;28087;-33.874;151.240;2023-06-05T12:13:54;3.88;;;0.80;;
20794;SDS011;28087;-33.874;151.240;2023-06-05T12:16:30;3.35;;;0.82;;
20794;SDS011;28087;-33.874;151.240;2023-06-05T12:19:11;4.43;;;0.95;;
20794;SDS011;28087;-33.874;151.240;2023-06-05T12:21:48;3.25;;;0.90;;
20794;SDS011;28087;-33.874;151.240;2023-06-05T12:24:24;5.50;;;0.80;;
20794;SDS011;28087;-33.874;151.240;2023-06-05T12:26:59;3.63;;;1.00;;
20794;SDS011;28087;-33.874;151.240;2023-06-05T12:29:36;3.22;;;0.80;;
20794;SDS011;28087;-33.874;151.240;2023-06-05T12:32:21;4.05;;;1.00;;
20794;SDS011;28087;-33.874;151.240;2023-06-05T12:34:56;3.80;;;0.88;;
20794;SDS011;28087;-33.874;151.240;2023-06-05T12:37:37;2.05;;;0.63;;
20794;SDS011;28087;-33.874;151.240;2023-06-05T12:40:16;4.93;;;0.80;;
20794;SDS011;28087;-33.874;151.240;2023-06-05T12:43:15;3.47;;;0.88;;
20794;SDS011;28087;-33.874;151.240;2023-06-05T12:45:50;3.40;;;1.00;;
20794;SDS011;28087;-33.874;151.240;2023-06-05T12:48:25;1.98;;;0.85;;
20794;SDS011;28087;-33.874;151.240;2023-06-05T12:50:59;5.13;;;1.17;;
20794;SDS011;28087;-33.874;151.240;2023-06-05T12:53:37;3.22;;;0.80;;
20794;SDS011;28087;-33.874;151.240;2023-06-05T12:56:12;4.88;;;0.90;;
20794;SDS011;28087;-33.874;151.240;2023-06-05T12:58:47;5.35;;;1.00;;
20794;SDS011;28087;-33.874;151.240;2023-06-05T13:01:21;4.20;;;0.77;;
20794;SDS011;28087;-33.874;151.240;2023-06-05T13:03:56;2.72;;;0.70;;
20794;SDS011;28087;-33.874;151.240;2023-06-05T13:06:31;2.63;;;0.70;;
20794;SDS011;28087;-33.874;151.240;2023-06-05T13:09:08;2.33;;;0.70;;
20794;SDS011;28087;-33.874;151.240;2023-06-05T13:11:43;4.13;;;0.70;;
20794;SDS011;28087;-33.874;151.240;2023-06-05T13:14:18;2.33;;;0.70;;
20794;SDS011;28087;-33.874;151.240;2023-06-05T13:16:52;3.28;;;0.70;;
20794;SDS011;28087;-33.874;151.240;2023-06-05T13:19:28;3.38;;;0.63;;
20794;SDS011;28087;-33.874;151.240;2023-06-05T13:22:02;4.88;;;0.80;;
20794;SDS011;28087;-33.874;151.240;2023-06-05T13:24:39;5.15;;;0.75;;
20794;SDS011;28087;-33.874;151.240;2023-06-05T13:27:14;3.78;;;0.70;;
20794;SDS011;28087;-33.874;151.240;2023-06-05T13:29:50;3.35;;;0.70;;
20794;SDS011;28087;-33.874;151.240;2023-06-05T13:32:25;2.80;;;0.60;;
20794;SDS011;28087;-33.874;151.240;2023-06-05T13:34:59;3.72;;;0.98;;
20794;SDS011;28087;-33.874;151.240;2023-06-05T13:37:35;3.58;;;0.80;;
20794;SDS011;28087;-33.874;151.240;2023-06-05T13:40:13;3.70;;;0.80;;
20794;SDS011;28087;-33.874;151.240;2023-06-05T13:42:51;4.07;;;0.75;;
20794;SDS011;28087;-33.874;151.240;2023-06-05T13:45:26;4.38;;;0.70;;
20794;SDS011;28087;-33.874;151.240;2023-06-05T13:48:00;3.78;;;0.80;;
20794;SDS011;28087;-33.874;151.240;2023-06-05T13:50:36;3.33;;;0.70;;
20794;SDS011;28087;-33.874;151.240;2023-06-05T13:53:10;2.60;;;0.73;;
20794;SDS011;28087;-33.874;151.240;2023-06-05T13:55:47;2.75;;;0.75;;
20794;SDS011;28087;-33.874;151.240;2023-06-05T13:58:22;2.85;;;0.70;;
20794;SDS011;28087;-33.874;151.240;2023-06-05T14:00:57;6.50;;;0.70;;
20794;SDS011;28087;-33.874;151.240;2023-06-05T14:03:32;3.45;;;0.75;;
20794;SDS011;28087;-33.874;151.240;2023-06-05T14:06:07;3.78;;;0.60;;
20794;SDS011;28087;-33.874;151.240;2023-06-05T14:08:41;3.45;;;0.80;;
20794;SDS011;28087;-33.874;151.240;2023-06-05T14:11:18;3.28;;;0.70;;
20794;SDS011;28087;-33.874;151.240;2023-06-05T14:13:53;3.42;;;0.70;;
20794;SDS011;28087;-33.874;151.240;2023-06-05T14:16:28;4.63;;;0.90;;
20794;SDS011;28087;-33.874;151.240;2023-06-05T14:19:03;5.30;;;0.90;;
20794;SDS011;28087;-33.874;151.240;2023-06-05T14:21:37;2.40;;;0.80;;
20794;SDS011;28087;-33.874;151.240;2023-06-05T14:24:13;5.82;;;1.00;;
20794;SDS011;28087;-33.874;151.240;2023-06-05T14:26:49;3.60;;;0.88;;
20794;SDS011;28087;-33.874;151.240;2023-06-05T14:29:24;4.50;;;0.90;;
20794;SDS011;28087;-33.874;151.240;2023-06-05T14:31:59;4.47;;;0.90;;
20794;SDS011;28087;-33.874;151.240;2023-06-05T14:34:34;3.45;;;1.00;;
20794;SDS011;28087;-33.874;151.240;2023-06-05T14:37:09;5.65;;;1.02;;
20794;SDS011;28087;-33.874;151.240;2023-06-05T14:39:43;5.63;;;1.00;;
20794;SDS011;28087;-33.874;151.240;2023-06-05T14:42:21;5.82;;;0.80;;
20794;SDS011;28087;-33.874;151.240;2023-06-05T14:44:56;6.38;;;0.90;;
20794;SDS011;28087;-33.874;151.240;2023-06-05T14:47:32;6.07;;;1.00;;
20794;SDS011;28087;-33.874;151.240;2023-06-05T14:50:08;8.63;;;1.20;;
20794;SDS011;28087;-33.874;151.240;2023-06-05T14:52:43;6.05;;;1.00;;
20794;SDS011;28087;-33.874;151.240;2023-06-05T14:55:17;6.55;;;1.02;;
20794;SDS011;28087;-33.874;151.240;2023-06-05T14:57:54;2.97;;;0.70;;
20794;SDS011;28087;-33.874;151.240;2023-06-05T15:00:29;5.53;;;0.90;;
20794;SDS011;28087;-33.874;151.240;2023-06-05T15:03:04;4.50;;;0.98;;
20794;SDS011;28087;-33.874;151.240;2023-06-05T15:05:39;4.18;;;1.20;;
20794;SDS011;28087;-33.874;151.240;2023-06-05T15:08:14;7.45;;;1.48;;
20794;SDS011;28087;-33.874;151.240;2023-06-05T15:10:49;6.05;;;1.20;;